createdAt,value
2016-05-26T00:00:56.826Z,14.63
2016-05-26T00:01:56.939Z,14.63
2016-05-26T00:03:00.191Z,14.56
2016-05-26T00:03:59.991Z,14.55
2016-05-26T00:05:00.072Z,14.53
2016-05-26T00:05:56.731Z,14.49
2016-05-26T00:06:59.905Z,14.43
2016-05-26T00:07:59.861Z,14.38
2016-05-26T00:09:02.598Z,14.37
2016-05-26T00:09:56.944Z,14.36
2016-05-26T00:10:56.494Z,14.37
2016-05-26T00:11:56.449Z,14.26
2016-05-26T00:12:56.405Z,14.31
2016-05-26T00:13:56.347Z,14.36
2016-05-26T00:14:56.520Z,14.36
2016-05-26T00:15:56.570Z,14.2
2016-05-26T00:16:56.229Z,14.34
2016-05-26T00:18:02.747Z,14.31
2016-05-26T00:18:59.110Z,14.28
2016-05-26T00:19:57.222Z,14.26
2016-05-26T00:21:02.052Z,14.22
2016-05-26T00:21:58.977Z,14.18
2016-05-26T00:23:01.933Z,14.19
2016-05-26T00:23:55.871Z,14.11
2016-05-26T00:24:55.857Z,14.07
2016-05-26T00:25:55.704Z,13.98
2016-05-26T00:26:56.315Z,13.95
2016-05-26T00:27:58.790Z,13.91
2016-05-26T00:28:58.667Z,13.89
2016-05-26T00:29:55.573Z,13.87
2016-05-26T00:31:01.548Z,13.85
2016-05-26T00:31:55.829Z,13.8
2016-05-26T00:32:59.022Z,13.78
2016-05-26T00:34:07.384Z,13.68
2016-05-26T00:35:01.340Z,13.78
2016-05-26T00:35:58.327Z,13.71
2016-05-26T00:36:55.218Z,13.76
2016-05-26T00:37:58.707Z,13.71
2016-05-26T00:38:57.976Z,13.79
2016-05-26T00:39:55.085Z,13.78
2016-05-26T00:40:55.353Z,13.68
2016-05-26T00:41:58.218Z,13.78
2016-05-26T00:42:57.955Z,13.68
2016-05-26T00:43:54.924Z,13.76
2016-05-26T00:44:54.848Z,13.7
2016-05-26T00:45:54.804Z,13.78
2016-05-26T00:46:58.169Z,13.67
2016-05-26T00:48:06.625Z,13.75
2016-05-26T00:49:00.518Z,13.73
2016-05-26T00:50:00.646Z,13.67
2016-05-26T00:50:54.552Z,13.76
2016-05-26T00:51:57.573Z,13.73
2016-05-26T00:53:00.466Z,13.78
2016-05-26T00:53:57.422Z,13.86
2016-05-26T00:54:54.047Z,13.79
2016-05-26T00:56:00.521Z,13.76
2016-05-26T00:56:54.255Z,13.87
2016-05-26T00:57:54.243Z,13.82
2016-05-26T00:58:54.152Z,13.79
2016-05-26T01:00:03.110Z,13.87
2016-05-26T01:00:57.157Z,13.97
2016-05-26T01:01:54.019Z,13.86
2016-05-26T01:02:53.975Z,13.94
2016-05-26T01:03:59.934Z,13.91
2016-05-26T01:04:53.887Z,13.93
2016-05-26T01:06:03.048Z,13.93
2016-05-26T01:07:02.660Z,14
2016-05-26T01:07:56.582Z,14.03
2016-05-26T01:08:56.678Z,14
2016-05-26T01:09:56.837Z,13.98
2016-05-26T01:10:53.997Z,14.03
2016-05-26T01:11:56.624Z,14.03
2016-05-26T01:12:56.690Z,13.97
2016-05-26T01:13:59.303Z,13.94
2016-05-26T01:14:53.897Z,13.89
2016-05-26T01:15:56.353Z,13.79
2016-05-26T01:16:53.294Z,13.87
2016-05-26T01:17:56.094Z,13.91
2016-05-26T01:18:56.221Z,13.78
2016-05-26T01:19:53.130Z,13.78
2016-05-26T01:20:53.508Z,13.83
2016-05-26T01:21:53.261Z,13.83
2016-05-26T01:22:56.060Z,13.82
2016-05-26T01:23:53.171Z,13.85
2016-05-26T01:24:55.753Z,13.85
2016-05-26T01:25:55.880Z,13.75
2016-05-26T01:26:53.024Z,13.83
2016-05-26T01:27:52.745Z,13.76
2016-05-26T01:28:52.732Z,13.76
2016-05-26T01:29:55.876Z,13.75
2016-05-26T01:30:55.612Z,13.7
2016-05-26T01:31:55.444Z,13.75
2016-05-26T01:32:52.540Z,13.64
2016-05-26T01:33:52.324Z,13.58
2016-05-26T01:34:52.264Z,13.61
2016-05-26T01:35:55.376Z,13.58
2016-05-26T01:36:58.176Z,13.5
2016-05-26T01:37:55.273Z,13.54
2016-05-26T01:38:52.213Z,13.55
2016-05-26T01:39:55.231Z,13.54
2016-05-26T01:40:54.968Z,13.5
2016-05-26T01:41:52.314Z,13.4
2016-05-26T01:42:52.348Z,13.47
2016-05-26T01:43:51.976Z,13.42
2016-05-26T01:44:51.931Z,13.43
2016-05-26T01:45:51.731Z,13.37
2016-05-26T01:46:51.843Z,13.36
2016-05-26T01:47:58.895Z,13.39
2016-05-26T01:48:55.099Z,13.43
2016-05-26T01:49:51.929Z,13.4
2016-05-26T01:50:57.822Z,13.45
2016-05-26T01:51:54.794Z,13.4
2016-05-26T01:52:57.531Z,13.42
2016-05-26T01:53:51.519Z,13.24
2016-05-26T01:54:54.443Z,13.27
2016-05-26T01:55:54.399Z,13.21
2016-05-26T01:56:51.542Z,13.21
2016-05-26T01:57:51.295Z,13.2
2016-05-26T01:58:54.344Z,13.2
2016-05-26T01:59:51.175Z,13.24
2016-05-26T02:00:54.146Z,13.16
2016-05-26T02:01:54.102Z,13.23
2016-05-26T02:02:51.043Z,13.26
2016-05-26T02:03:54.404Z,13.27
2016-05-26T02:04:51.142Z,13.26
2016-05-26T02:05:53.909Z,13.17
2016-05-26T02:06:56.882Z,13.24
2016-05-26T02:07:50.806Z,13.2
2016-05-26T02:08:53.606Z,13.21
2016-05-26T02:09:53.608Z,13.26
2016-05-26T02:10:51.158Z,13.21
2016-05-26T02:11:53.457Z,13.16
2016-05-26T02:12:50.756Z,13.17
2016-05-26T02:13:50.526Z,13.19
2016-05-26T02:14:50.465Z,13.17
2016-05-26T02:15:50.249Z,13.2
2016-05-26T02:16:50.361Z,13.16
2016-05-26T02:17:50.317Z,13.2
2016-05-26T02:18:53.273Z,13.05
2016-05-26T02:19:53.058Z,13.2
2016-05-26T02:20:50.153Z,13.17
2016-05-26T02:21:52.969Z,13.16
2016-05-26T02:22:50.081Z,13.11
2016-05-26T02:23:53.021Z,13.06
2016-05-26T02:24:49.961Z,13.09
2016-05-26T02:25:52.776Z,13.05
2016-05-26T02:26:50.091Z,13.05
2016-05-26T02:27:49.829Z,13.06
2016-05-26T02:28:52.768Z,13.03
2016-05-26T02:30:01.758Z,13.01
2016-05-26T02:30:49.680Z,12.99
2016-05-26T02:31:52.479Z,13.03
2016-05-26T02:32:50.232Z,13.16
2016-05-26T02:33:49.579Z,13.12
2016-05-26T02:34:49.785Z,13.23
2016-05-26T02:35:52.272Z,13.23
2016-05-26T02:36:58.384Z,13.23
2016-05-26T02:37:49.184Z,13.24
2016-05-26T02:38:49.265Z,13.17
2016-05-26T02:39:49.439Z,13.17
2016-05-26T02:40:49.035Z,13.21
2016-05-26T02:41:49.132Z,13.26
2016-05-26T02:42:52.290Z,13.23
2016-05-26T02:43:49.012Z,13.2
2016-05-26T02:44:52.531Z,13.26
2016-05-26T02:45:48.892Z,13.23
2016-05-26T02:46:49.208Z,13.08
2016-05-26T02:47:49.132Z,13.08
2016-05-26T02:48:48.635Z,13.17
2016-05-26T02:49:48.888Z,13.26
2016-05-26T02:50:51.530Z,13.21
2016-05-26T02:51:51.689Z,13.03
2016-05-26T02:52:48.442Z,13.11
2016-05-26T02:53:54.508Z,13.12
2016-05-26T02:54:48.761Z,13.08
2016-05-26T02:55:48.436Z,13.08
2016-05-26T02:56:51.390Z,13.06
2016-05-26T02:57:51.738Z,13.02
2016-05-26T02:58:51.319Z,13.02
2016-05-26T02:59:51.446Z,13.06
2016-05-26T03:00:57.058Z,13.08
2016-05-26T03:01:48.138Z,13.11
2016-05-26T03:02:47.954Z,13.08
2016-05-26T03:03:48.254Z,13.01
2016-05-26T03:04:47.834Z,13.02
2016-05-26T03:05:47.993Z,13.03
2016-05-26T03:06:47.902Z,13.06
2016-05-26T03:07:47.857Z,12.99
2016-05-26T03:08:48.205Z,12.99
2016-05-26T03:09:47.754Z,13.05
2016-05-26T03:10:47.709Z,12.99
2016-05-26T03:11:47.681Z,13.06
2016-05-26T03:12:47.621Z,13.13
2016-05-26T03:13:50.578Z,13.19
2016-05-26T03:14:50.518Z,13.2
2016-05-26T03:15:50.473Z,13.08
2016-05-26T03:16:47.445Z,13.26
2016-05-26T03:17:53.432Z,13.28
2016-05-26T03:18:50.325Z,13.28
2016-05-26T03:19:50.328Z,13.23
2016-05-26T03:20:47.408Z,13.23
2016-05-26T03:21:50.661Z,13.19
2016-05-26T03:22:46.945Z,13.24
2016-05-26T03:23:50.135Z,13.28
2016-05-26T03:24:50.247Z,13.28
2016-05-26T03:25:50.188Z,13.21
2016-05-26T03:26:46.924Z,13.19
2016-05-26T03:27:52.896Z,13.19
2016-05-26T03:28:50.039Z,13.21
2016-05-26T03:29:47.167Z,13.17
2016-05-26T03:30:46.919Z,13.13
2016-05-26T03:31:46.501Z,13.11
2016-05-26T03:32:46.660Z,13.12
2016-05-26T03:33:49.803Z,13.03
2016-05-26T03:34:49.524Z,13.05
2016-05-26T03:35:46.479Z,13.05
2016-05-26T03:36:55.468Z,13.02
2016-05-26T03:37:46.392Z,13.06
2016-05-26T03:38:49.020Z,13.02
2016-05-26T03:39:49.287Z,13.08
2016-05-26T03:40:49.321Z,13.01
2016-05-26T03:41:46.371Z,13.17
2016-05-26T03:42:49.155Z,13.09
2016-05-26T03:43:49.079Z,13.11
2016-05-26T03:44:49.379Z,13.09
2016-05-26T03:45:45.975Z,13.09
2016-05-26T03:46:48.931Z,13.09
2016-05-26T03:47:46.215Z,13.23
2016-05-26T03:48:45.828Z,13.16
2016-05-26T03:49:45.784Z,13.21
2016-05-26T03:50:45.739Z,13.24
2016-05-26T03:51:51.742Z,13.23
2016-05-26T03:52:45.838Z,13.12
2016-05-26T03:53:48.810Z,13.08
2016-05-26T03:54:45.531Z,13.17
2016-05-26T03:55:48.487Z,13.21
2016-05-26T03:56:45.443Z,13.13
2016-05-26T03:57:48.399Z,13.12
2016-05-26T03:58:48.354Z,13.09
2016-05-26T03:59:45.294Z,13.16
2016-05-26T04:00:45.250Z,13.11
2016-05-26T04:01:45.050Z,13.09
2016-05-26T04:02:48.427Z,13.23
2016-05-26T04:03:48.087Z,13.2
2016-05-26T04:04:45.058Z,13.21
2016-05-26T04:05:44.999Z,13.23
2016-05-26T04:06:51.001Z,13.21
2016-05-26T04:07:50.910Z,13.19
2016-05-26T04:08:50.866Z,13.21
2016-05-26T04:09:44.806Z,13.17
2016-05-26T04:10:44.746Z,13.2
2016-05-26T04:11:47.717Z,13.26
2016-05-26T04:12:50.657Z,13.21
2016-05-26T04:13:44.598Z,13.2
2016-05-26T04:14:44.538Z,13.26
2016-05-26T04:15:47.509Z,13.19
2016-05-26T04:16:47.465Z,13.11
2016-05-26T04:17:44.264Z,13.17
2016-05-26T04:18:53.549Z,13.16
2016-05-26T04:19:50.334Z,13.09
2016-05-26T04:20:50.257Z,13.12
2016-05-26T04:21:44.213Z,13.17
2016-05-26T04:22:47.184Z,13.09
2016-05-26T04:23:44.109Z,13.09
2016-05-26T04:24:43.925Z,13.11
2016-05-26T04:25:44.021Z,13.11
2016-05-26T04:26:43.961Z,13.19
2016-05-26T04:27:47.058Z,13.24
2016-05-26T04:28:43.857Z,13.21
2016-05-26T04:29:43.813Z,13.21
2016-05-26T04:30:43.706Z,13.24
2016-05-26T04:31:43.693Z,13.24
2016-05-26T04:32:43.758Z,13.17
2016-05-26T04:33:43.636Z,13.23
2016-05-26T04:34:43.591Z,13.31
2016-05-26T04:35:46.516Z,13.31
2016-05-26T04:36:43.487Z,13.21
2016-05-26T04:37:49.413Z,13.16
2016-05-26T04:38:43.447Z,13.26
2016-05-26T04:39:43.324Z,13.23
2016-05-26T04:40:43.280Z,13.24
2016-05-26T04:41:43.220Z,13.21
2016-05-26T04:42:43.192Z,13.21
2016-05-26T04:43:43.132Z,13.2
2016-05-26T04:44:43.056Z,13.23
2016-05-26T04:45:43.090Z,13.23
2016-05-26T04:46:45.999Z,13.16
2016-05-26T04:47:46.423Z,13.16
2016-05-26T04:48:42.879Z,13.23
2016-05-26T04:49:42.679Z,13.24
2016-05-26T04:50:42.791Z,13.23
2016-05-26T04:51:42.575Z,13.13
2016-05-26T04:52:43.094Z,13.17
2016-05-26T04:53:45.659Z,13.24
2016-05-26T04:54:42.568Z,13.23
2016-05-26T04:55:42.741Z,13.21
2016-05-26T04:56:42.698Z,13.26
2016-05-26T04:57:45.654Z,13.3
2016-05-26T04:58:42.594Z,13.24
2016-05-26T04:59:42.831Z,13.12
2016-05-26T05:00:45.458Z,13.2
2016-05-26T05:01:45.227Z,13.3
2016-05-26T05:02:45.980Z,13.27
2016-05-26T05:03:42.154Z,13.4
2016-05-26T05:04:45.110Z,13.37
2016-05-26T05:05:48.049Z,13.43
2016-05-26T05:06:45.006Z,13.47
2016-05-26T05:07:44.963Z,13.47
2016-05-26T05:08:44.918Z,13.47
2016-05-26T05:09:41.904Z,13.52
2016-05-26T05:10:44.813Z,13.46
2016-05-26T05:11:44.754Z,13.47
2016-05-26T05:12:44.913Z,13.52
2016-05-26T05:13:41.510Z,13.49
2016-05-26T05:14:41.653Z,13.46
2016-05-26T05:15:44.546Z,13.49
2016-05-26T05:16:41.705Z,13.37
2016-05-26T05:17:41.520Z,13.45
2016-05-26T05:18:44.631Z,13.49
2016-05-26T05:19:41.369Z,13.37
2016-05-26T05:20:44.528Z,13.46
2016-05-26T05:21:44.187Z,13.43
2016-05-26T05:22:44.220Z,13.4
2016-05-26T05:23:41.162Z,13.4
2016-05-26T05:24:47.133Z,13.42
2016-05-26T05:25:41.057Z,13.42
2016-05-26T05:26:41.013Z,13.4
2016-05-26T05:27:43.953Z,13.4
2016-05-26T05:28:43.925Z,13.43
2016-05-26T05:29:43.881Z,13.46
2016-05-26T05:30:40.664Z,13.46
2016-05-26T05:31:40.761Z,13.46
2016-05-26T05:32:40.936Z,13.4
2016-05-26T05:33:44.094Z,13.49
2016-05-26T05:34:40.613Z,13.45
2016-05-26T05:35:43.569Z,13.49
2016-05-26T05:36:40.743Z,13.43
2016-05-26T05:37:40.511Z,13.45
2016-05-26T05:38:40.420Z,13.49
2016-05-26T05:39:43.391Z,13.47
2016-05-26T05:40:46.660Z,13.46
2016-05-26T05:41:46.304Z,13.46
2016-05-26T05:42:40.087Z,13.47
2016-05-26T05:43:43.184Z,13.54
2016-05-26T05:44:39.967Z,13.61
2016-05-26T05:45:40.064Z,13.61
2016-05-26T05:46:48.879Z,13.61
2016-05-26T05:47:40.460Z,13.73
2016-05-26T05:48:39.932Z,13.68
2016-05-26T05:49:42.887Z,13.76
2016-05-26T05:50:43.234Z,13.79
2016-05-26T05:51:43.284Z,13.79
2016-05-26T05:52:42.723Z,13.79
2016-05-26T05:53:43.803Z,13.83
2016-05-26T05:54:39.478Z,13.83
2016-05-26T05:55:42.653Z,13.85
2016-05-26T05:56:45.547Z,13.93
2016-05-26T05:57:39.674Z,13.94
2016-05-26T05:58:46.567Z,13.93
2016-05-26T05:59:39.383Z,13.91
2016-05-26T06:00:39.354Z,13.91
2016-05-26T06:01:39.592Z,13.93
2016-05-26T06:02:42.360Z,13.87
2016-05-26T06:03:42.206Z,13.95
2016-05-26T06:04:42.147Z,14.07
2016-05-26T06:05:38.930Z,14.03
2016-05-26T06:06:42.074Z,13.98
2016-05-26T06:07:42.232Z,14
2016-05-26T06:08:42.032Z,13.95
2016-05-26T06:09:41.910Z,13.89
2016-05-26T06:10:38.850Z,14
2016-05-26T06:11:42.009Z,14.11
2016-05-26T06:12:41.762Z,14.05
2016-05-26T06:13:41.733Z,14.16
2016-05-26T06:14:38.657Z,14.05
2016-05-26T06:15:41.629Z,14.04
2016-05-26T06:16:38.756Z,14.08
2016-05-26T06:17:44.618Z,14.05
2016-05-26T06:18:38.326Z,14.07
2016-05-26T06:19:38.624Z,14.15
2016-05-26T06:20:38.596Z,14.15
2016-05-26T06:21:41.317Z,14.23
2016-05-26T06:22:41.257Z,14.31
2016-05-26T06:23:41.245Z,14.25
2016-05-26T06:24:45.106Z,14.3
2016-05-26T06:25:38.187Z,14.26
2016-05-26T06:26:38.097Z,14.34
2016-05-26T06:27:41.036Z,14.34
2016-05-26T06:28:37.977Z,14.31
2016-05-26T06:29:43.948Z,14.41
2016-05-26T06:30:38.294Z,14.38
2016-05-26T06:31:40.688Z,14.44
2016-05-26T06:32:40.784Z,14.51
2016-05-26T06:33:47.021Z,14.49
2016-05-26T06:34:43.711Z,14.45
2016-05-26T06:35:43.682Z,14.48
2016-05-26T06:36:44.013Z,14.55
2016-05-26T06:37:40.548Z,14.58
2016-05-26T06:38:37.488Z,14.62
2016-05-26T06:39:37.303Z,14.58
2016-05-26T06:40:40.415Z,14.66
2016-05-26T06:41:43.574Z,14.79
2016-05-26T06:42:40.327Z,14.74
2016-05-26T06:43:40.111Z,14.74
2016-05-26T06:44:43.629Z,14.81
2016-05-26T06:45:37.179Z,14.79
2016-05-26T06:46:37.119Z,14.78
2016-05-26T06:47:37.043Z,14.81
2016-05-26T06:48:37.015Z,14.73
2016-05-26T06:49:42.986Z,14.78
2016-05-26T06:50:37.129Z,14.93
2016-05-26T06:51:36.867Z,14.99
2016-05-26T06:52:37.010Z,15.02
2016-05-26T06:53:39.778Z,15.04
2016-05-26T06:54:39.733Z,14.97
2016-05-26T06:55:39.878Z,14.96
2016-05-26T06:56:36.473Z,15.05
2016-05-26T06:57:39.617Z,15.05
2016-05-26T06:58:37.058Z,15.02
2016-05-26T06:59:36.497Z,15.08
2016-05-26T07:00:39.438Z,15.12
2016-05-26T07:01:36.394Z,15.14
2016-05-26T07:02:48.209Z,15.17
2016-05-26T07:03:36.289Z,15.17
2016-05-26T07:04:36.245Z,15.29
2016-05-26T07:05:39.186Z,15.26
2016-05-26T07:06:36.141Z,15.47
2016-05-26T07:07:35.957Z,15.47
2016-05-26T07:08:36.099Z,15.5
2016-05-26T07:09:36.243Z,15.55
2016-05-26T07:10:39.433Z,15.66
2016-05-26T07:11:35.935Z,15.63
2016-05-26T07:12:36.032Z,15.66
2016-05-26T07:13:35.816Z,15.75
2016-05-26T07:14:35.772Z,15.72
2016-05-26T07:15:35.571Z,15.8
2016-05-26T07:16:38.887Z,15.8
2016-05-26T07:17:35.639Z,15.8
2016-05-26T07:18:35.862Z,15.78
2016-05-26T07:19:38.521Z,15.92
2016-05-26T07:20:35.679Z,15.96
2016-05-26T07:21:35.635Z,16.02
2016-05-26T07:22:38.809Z,16.03
2016-05-26T07:23:35.171Z,16.1
2016-05-26T07:24:44.409Z,16.21
2016-05-26T07:25:35.239Z,16.25
2016-05-26T07:26:35.633Z,16.43
2016-05-26T07:27:35.151Z,16.37
2016-05-26T07:28:38.091Z,16.36
2016-05-26T07:29:35.047Z,16.34
2016-05-26T07:30:38.049Z,16.4
2016-05-26T07:31:34.974Z,16.41
2016-05-26T07:32:35.289Z,16.36
2016-05-26T07:33:37.886Z,16.44
2016-05-26T07:34:37.825Z,16.46
2016-05-26T07:35:34.750Z,16.47
2016-05-26T07:36:34.705Z,16.46
2016-05-26T07:37:37.708Z,16.58
2016-05-26T07:38:37.892Z,16.68
2016-05-26T07:39:43.638Z,16.68
2016-05-26T07:40:37.619Z,16.66
2016-05-26T07:41:34.427Z,16.84
2016-05-26T07:42:40.587Z,17.02
2016-05-26T07:43:37.724Z,16.99
2016-05-26T07:44:34.516Z,17.05
2016-05-26T07:45:37.871Z,17.23
2016-05-26T07:46:37.430Z,17.17
2016-05-26T07:47:34.439Z,17.19
2016-05-26T07:48:34.381Z,17.22
2016-05-26T07:49:37.294Z,17.2
2016-05-26T07:50:34.254Z,17.23
2016-05-26T07:51:37.213Z,17.2
2016-05-26T07:52:34.343Z,17.19
2016-05-26T07:53:36.956Z,17.24
2016-05-26T07:54:34.272Z,17.32
2016-05-26T07:55:34.011Z,17.34
2016-05-26T07:56:33.827Z,17.39
2016-05-26T07:57:33.955Z,17.38
2016-05-26T07:58:34.067Z,17.47
2016-05-26T07:59:33.836Z,17.53
2016-05-26T08:00:33.808Z,17.57
2016-05-26T08:01:33.732Z,17.56
2016-05-26T08:02:37.611Z,17.54
2016-05-26T08:03:34.129Z,17.57
2016-05-26T08:04:39.585Z,17.57
2016-05-26T08:05:33.744Z,17.57
2016-05-26T08:06:36.560Z,17.57
2016-05-26T08:07:36.515Z,17.63
2016-05-26T08:08:33.610Z,17.65
2016-05-26T08:09:36.364Z,17.78
2016-05-26T08:10:36.352Z,17.72
2016-05-26T08:11:36.838Z,17.82
2016-05-26T08:12:36.232Z,17.78
2016-05-26T08:13:36.171Z,17.86
2016-05-26T08:14:39.362Z,17.84
2016-05-26T08:15:36.115Z,17.86
2016-05-26T08:16:33.462Z,17.88
2016-05-26T08:17:32.979Z,17.94
2016-05-26T08:18:32.794Z,17.91
2016-05-26T08:19:32.907Z,17.94
2016-05-26T08:20:35.893Z,18.03
2016-05-26T08:21:35.803Z,17.98
2016-05-26T08:22:35.977Z,18.03
2016-05-26T08:23:38.730Z,17.98
2016-05-26T08:24:35.686Z,18.02
2016-05-26T08:25:33.031Z,18.06
2016-05-26T08:26:32.644Z,18.06
2016-05-26T08:27:35.944Z,18.05
2016-05-26T08:28:32.680Z,18.16
2016-05-26T08:29:41.621Z,18.21
2016-05-26T08:30:32.420Z,18.3
2016-05-26T08:31:35.344Z,18.28
2016-05-26T08:32:32.144Z,18.26
2016-05-26T08:33:32.664Z,18.42
2016-05-26T08:34:32.415Z,18.52
2016-05-26T08:35:32.168Z,18.61
2016-05-26T08:36:41.202Z,18.64
2016-05-26T08:37:32.064Z,18.74
2016-05-26T08:38:32.021Z,18.79
2016-05-26T08:39:31.992Z,18.76
2016-05-26T08:40:37.962Z,18.79
2016-05-26T08:41:34.732Z,18.73
2016-05-26T08:42:32.235Z,18.76
2016-05-26T08:43:34.830Z,18.68
2016-05-26T08:44:31.583Z,18.73
2016-05-26T08:45:34.710Z,18.76
2016-05-26T08:46:31.667Z,18.83
2016-05-26T08:47:38.232Z,18.78
2016-05-26T08:48:32.126Z,18.79
2016-05-26T08:49:31.503Z,18.82
2016-05-26T08:50:31.474Z,18.85
2016-05-26T08:51:31.415Z,18.92
2016-05-26T08:52:37.417Z,18.97
2016-05-26T08:53:34.576Z,18.96
2016-05-26T08:54:40.328Z,19.07
2016-05-26T08:55:34.456Z,19.04
2016-05-26T08:56:34.631Z,19.05
2016-05-26T08:57:40.165Z,18.96
2016-05-26T08:58:31.292Z,18.96
2016-05-26T08:59:30.905Z,18.82
2016-05-26T09:00:34.017Z,18.89
2016-05-26T09:01:34.019Z,18.78
2016-05-26T09:02:31.006Z,18.63
2016-05-26T09:03:31.509Z,18.68
2016-05-26T09:04:30.840Z,18.7
2016-05-26T09:05:33.811Z,18.73
2016-05-26T09:06:30.752Z,18.7
2016-05-26T09:07:30.676Z,18.7
2016-05-26T09:08:36.757Z,18.64
2016-05-26T09:09:33.619Z,18.57
2016-05-26T09:10:30.746Z,18.57
2016-05-26T09:11:33.374Z,18.7
2016-05-26T09:12:33.658Z,18.74
2016-05-26T09:13:33.614Z,18.78
2016-05-26T09:14:36.398Z,18.82
2016-05-26T09:15:36.370Z,18.91
2016-05-26T09:16:30.466Z,19.05
2016-05-26T09:17:36.250Z,19.08
2016-05-26T09:18:30.409Z,19.15
2016-05-26T09:19:33.146Z,19.26
2016-05-26T09:20:30.148Z,19.35
2016-05-26T09:21:33.245Z,19.32
2016-05-26T09:22:30.014Z,19.34
2016-05-26T09:23:29.970Z,19.48
2016-05-26T09:24:29.973Z,19.44
2016-05-26T09:25:32.880Z,19.41
2016-05-26T09:26:29.821Z,19.41
2016-05-26T09:27:29.777Z,19.35
2016-05-26T09:28:29.780Z,19.37
2016-05-26T09:29:29.704Z,19.38
2016-05-26T09:30:29.848Z,19.42
2016-05-26T09:31:32.631Z,19.48
2016-05-26T09:32:29.556Z,19.55
2016-05-26T09:33:29.590Z,19.64
2016-05-26T09:34:29.327Z,19.72
2016-05-26T09:35:29.267Z,19.64
2016-05-26T09:36:29.582Z,19.72
2016-05-26T09:37:29.835Z,19.63
2016-05-26T09:38:29.291Z,19.63
2016-05-26T09:39:32.435Z,19.75
2016-05-26T09:40:29.046Z,19.7
2016-05-26T09:41:29.174Z,19.72
2016-05-26T09:42:38.318Z,19.82
2016-05-26T09:43:29.132Z,19.87
2016-05-26T09:44:29.401Z,19.77
2016-05-26T09:45:32.013Z,19.78
2016-05-26T09:46:29.329Z,19.87
2016-05-26T09:47:28.877Z,19.84
2016-05-26T09:48:31.537Z,19.9
2016-05-26T09:49:32.212Z,19.9
2016-05-26T09:50:28.745Z,19.89
2016-05-26T09:51:37.748Z,19.92
2016-05-26T09:52:31.859Z,20.11
2016-05-26T09:53:31.613Z,20.07
2016-05-26T09:54:28.975Z,20.07
2016-05-26T09:55:31.524Z,20.17
2016-05-26T09:56:31.495Z,20.11
2016-05-26T09:57:28.436Z,20.22
2016-05-26T09:58:34.657Z,20.39
2016-05-26T09:59:34.364Z,20.44
2016-05-26T10:00:31.694Z,20.4
2016-05-26T10:01:28.244Z,20.46
2016-05-26T10:02:31.058Z,20.48
2016-05-26T10:03:29.311Z,20.58
2016-05-26T10:04:28.111Z,20.56
2016-05-26T10:05:34.145Z,20.59
2016-05-26T10:06:31.053Z,20.56
2016-05-26T10:07:31.010Z,20.56
2016-05-26T10:08:31.153Z,20.59
2016-05-26T10:09:28.108Z,20.71
2016-05-26T10:10:30.877Z,20.66
2016-05-26T10:11:31.099Z,20.74
2016-05-26T10:12:34.008Z,20.71
2016-05-26T10:13:27.729Z,20.82
2016-05-26T10:14:27.529Z,20.8
2016-05-26T10:15:30.703Z,20.75
2016-05-26T10:16:27.643Z,20.71
2016-05-26T10:17:27.364Z,20.75
2016-05-26T10:18:33.540Z,20.7
2016-05-26T10:19:27.307Z,20.77
2016-05-26T10:20:27.420Z,20.8
2016-05-26T10:21:27.359Z,20.82
2016-05-26T10:22:27.534Z,20.82
2016-05-26T10:23:30.490Z,20.8
2016-05-26T10:24:33.259Z,20.8
2016-05-26T10:25:27.198Z,20.75
2016-05-26T10:26:27.498Z,20.85
2016-05-26T10:27:26.939Z,20.77
2016-05-26T10:28:30.254Z,20.9
2016-05-26T10:29:26.850Z,20.9
2016-05-26T10:30:26.962Z,20.95
2016-05-26T10:31:29.917Z,20.98
2016-05-26T10:32:29.873Z,20.92
2016-05-26T10:33:27.158Z,20.9
2016-05-26T10:34:26.769Z,20.9
2016-05-26T10:35:32.600Z,20.9
2016-05-26T10:36:32.571Z,20.92
2016-05-26T10:37:29.669Z,21.04
2016-05-26T10:38:32.624Z,21.01
2016-05-26T10:39:26.814Z,21.13
2016-05-26T10:40:29.739Z,21.1
2016-05-26T10:41:26.476Z,21.08
2016-05-26T10:42:35.947Z,21.13
2016-05-26T10:43:29.387Z,21.14
2016-05-26T10:44:26.343Z,21.1
2016-05-26T10:45:26.300Z,21.15
2016-05-26T10:46:26.240Z,21.17
2016-05-26T10:47:29.227Z,21.29
2016-05-26T10:48:27.526Z,21.28
2016-05-26T10:49:29.138Z,21.3
2016-05-26T10:50:26.281Z,21.3
2016-05-26T10:51:38.050Z,21.29
2016-05-26T10:52:28.834Z,21.28
2016-05-26T10:53:26.149Z,21.32
2016-05-26T10:54:29.120Z,21.25
2016-05-26T10:55:32.873Z,21.22
2016-05-26T10:56:29.281Z,21.2
2016-05-26T10:57:25.769Z,21.22
2016-05-26T10:58:25.834Z,21.33
2016-05-26T10:59:25.681Z,21.35
2016-05-26T11:00:28.652Z,21.43
2016-05-26T11:01:25.826Z,21.51
2016-05-26T11:02:25.564Z,21.56
2016-05-26T11:03:25.644Z,21.58
2016-05-26T11:04:25.475Z,21.6
2016-05-26T11:05:28.650Z,21.54
2016-05-26T11:06:25.372Z,21.74
2016-05-26T11:07:28.311Z,21.77
2016-05-26T11:08:25.127Z,21.7
2016-05-26T11:09:28.302Z,21.72
2016-05-26T11:10:28.069Z,21.75
2016-05-26T11:11:28.166Z,21.69
2016-05-26T11:12:25.106Z,21.8
2016-05-26T11:13:25.108Z,21.83
2016-05-26T11:14:31.033Z,21.88
2016-05-26T11:15:24.817Z,21.77
2016-05-26T11:16:24.976Z,21.78
2016-05-26T11:17:28.104Z,21.85
2016-05-26T11:18:28.388Z,21.81
2016-05-26T11:19:30.875Z,21.92
2016-05-26T11:20:33.831Z,21.94
2016-05-26T11:21:27.709Z,21.85
2016-05-26T11:22:33.696Z,21.83
2016-05-26T11:23:30.667Z,21.72
2016-05-26T11:24:24.607Z,21.78
2016-05-26T11:25:24.579Z,21.84
2016-05-26T11:26:27.518Z,21.75
2016-05-26T11:27:30.568Z,21.83
2016-05-26T11:28:27.430Z,21.78
2016-05-26T11:29:30.246Z,21.88
2016-05-26T11:30:27.592Z,21.97
2016-05-26T11:31:30.298Z,21.96
2016-05-26T11:32:36.269Z,21.97
2016-05-26T11:33:30.444Z,22.06
2016-05-26T11:34:27.322Z,22.12
2016-05-26T11:35:27.122Z,22.12
2016-05-26T11:36:27.280Z,22.03
2016-05-26T11:37:24.111Z,21.83
2016-05-26T11:38:26.989Z,21.84
2016-05-26T11:39:26.960Z,21.83
2016-05-26T11:40:24.103Z,21.88
2016-05-26T11:41:24.356Z,21.85
2016-05-26T11:42:23.828Z,22.01
2016-05-26T11:43:23.783Z,22.01
2016-05-26T11:44:23.724Z,21.81
2016-05-26T11:45:29.913Z,21.91
2016-05-26T11:46:26.635Z,22.06
2016-05-26T11:47:27.029Z,22.16
2016-05-26T11:48:23.610Z,22.28
2016-05-26T11:49:23.705Z,22.41
2016-05-26T11:50:23.474Z,22.49
2016-05-26T11:51:23.430Z,22.44
2016-05-26T11:52:26.371Z,22.52
2016-05-26T11:53:29.545Z,22.52
2016-05-26T11:54:26.141Z,22.53
2016-05-26T11:55:29.253Z,22.59
2016-05-26T11:56:26.413Z,22.61
2016-05-26T11:57:23.181Z,22.7
2016-05-26T11:58:26.651Z,22.78
2016-05-26T11:59:30.468Z,22.84
2016-05-26T12:00:26.048Z,22.93
2016-05-26T12:01:29.003Z,22.92
2016-05-26T12:02:23.162Z,22.98
2016-05-26T12:03:29.134Z,22.84
2016-05-26T12:04:49.903Z,22.83
2016-05-26T12:05:29.014Z,22.81
2016-05-26T12:06:28.814Z,22.7
2016-05-26T12:07:28.739Z,22.58
2016-05-26T12:08:25.694Z,22.56
2016-05-26T12:09:25.495Z,22.52
2016-05-26T12:10:28.637Z,22.46
2016-05-26T12:11:25.577Z,22.52
2016-05-26T12:12:22.533Z,22.55
2016-05-26T12:13:25.489Z,22.55
2016-05-26T12:14:28.477Z,22.53
2016-05-26T12:15:22.369Z,22.65
2016-05-26T12:16:25.357Z,22.68
2016-05-26T12:17:22.312Z,22.68
2016-05-26T12:18:22.643Z,22.55
2016-05-26T12:19:25.255Z,22.46
2016-05-26T12:20:22.196Z,22.49
2016-05-26T12:21:22.164Z,22.53
2016-05-26T12:22:22.073Z,22.59
2016-05-26T12:23:21.888Z,22.62
2016-05-26T12:24:21.984Z,22.67
2016-05-26T12:25:22.019Z,22.71
2016-05-26T12:26:22.115Z,22.81
2016-05-26T12:27:21.726Z,22.88
2016-05-26T12:28:21.808Z,22.93
2016-05-26T12:29:21.764Z,23.01
2016-05-26T12:30:24.754Z,23.07
2016-05-26T12:31:24.693Z,23.16
2016-05-26T12:32:21.678Z,23.2
2016-05-26T12:33:21.993Z,23.34
2016-05-26T12:34:24.421Z,23.36
2016-05-26T12:35:24.517Z,23.39
2016-05-26T12:36:21.454Z,23.28
2016-05-26T12:37:21.425Z,23.34
2016-05-26T12:38:24.370Z,23.26
2016-05-26T12:39:24.340Z,23.32
2016-05-26T12:40:24.328Z,23.44
2016-05-26T12:41:21.250Z,23.32
2016-05-26T12:42:24.236Z,23.34
2016-05-26T12:43:21.177Z,23.33
2016-05-26T12:44:24.147Z,23.34
2016-05-26T12:45:24.073Z,23.4
2016-05-26T12:46:23.888Z,23.33
2016-05-26T12:47:21.000Z,23.33
2016-05-26T12:48:21.096Z,23.36
2016-05-26T12:49:20.771Z,23.33
2016-05-26T12:50:20.914Z,23.48
2016-05-26T12:51:26.841Z,23.49
2016-05-26T12:52:24.013Z,23.36
2016-05-26T12:53:26.769Z,23.36
2016-05-26T12:54:20.691Z,23.32
2016-05-26T12:55:20.677Z,23.37